createdAt,value
2015-10-29T00:00:07.232Z,79.75
2015-10-29T00:00:19.576Z,79.28
2015-10-29T00:00:31.920Z,79.18
2015-10-29T00:00:44.282Z,79.85
2015-10-29T00:00:56.610Z,80.13
2015-10-29T00:01:08.939Z,79.94
2015-10-29T00:01:21.282Z,79.66
2015-10-29T00:01:33.610Z,80.04
2015-10-29T00:01:45.941Z,80.32
2015-10-29T00:01:58.284Z,79.85
2015-10-29T00:02:09.925Z,79.56
2015-10-29T00:02:22.284Z,79.56
2015-10-29T00:02:34.659Z,79.37
2015-10-29T00:02:47.006Z,79.37
2015-10-29T00:02:59.319Z,79.47
2015-10-29T00:03:11.662Z,79.28
2015-10-29T00:03:23.990Z,79.09
2015-10-29T00:03:36.334Z,78.99
2015-10-29T00:03:48.664Z,79.09
2015-10-29T00:04:00.992Z,79.18
2015-10-29T00:04:13.367Z,78.8
2015-10-29T00:04:25.711Z,78.9
2015-10-29T00:04:38.071Z,78.99
2015-10-29T00:04:50.450Z,78.99
2015-10-29T00:05:02.793Z,78.71
2015-10-29T00:05:15.121Z,78.8
2015-10-29T00:05:27.465Z,78.8
2015-10-29T00:05:39.075Z,79.09
2015-10-29T00:05:51.420Z,79.03
2015-10-29T00:06:03.764Z,78.9
2015-10-29T00:06:16.123Z,78.99
2015-10-29T00:06:28.483Z,78.8
2015-10-29T00:06:40.813Z,78.61
2015-10-29T00:06:53.141Z,78.42
2015-10-29T00:07:05.485Z,78.52
2015-10-29T00:07:17.813Z,78.46
2015-10-29T00:07:30.157Z,78.42
2015-10-29T00:07:42.489Z,78.52
2015-10-29T00:07:54.848Z,78.46
2015-10-29T00:08:07.208Z,78.46
2015-10-29T00:08:19.567Z,78.46
2015-10-29T00:08:31.926Z,78.42
2015-10-29T00:08:44.256Z,78.46
2015-10-29T00:08:56.569Z,78.46
2015-10-29T00:09:08.881Z,78.46
2015-10-29T00:09:21.210Z,78.46
2015-10-29T00:09:33.538Z,78.46
2015-10-29T00:09:45.883Z,78.85
2015-10-29T00:09:58.258Z,78.37
2015-10-29T00:10:10.587Z,78.42
2015-10-29T00:10:22.930Z,78.33
2015-10-29T00:10:35.258Z,78.75
2015-10-29T00:10:47.606Z,78.75
2015-10-29T00:10:59.934Z,78.75
2015-10-29T00:11:12.262Z,78.75
2015-10-29T00:11:24.591Z,78.8
2015-10-29T00:11:36.966Z,78.75
2015-10-29T00:11:49.296Z,78.75
2015-10-29T00:12:01.624Z,78.8
2015-10-29T00:12:13.936Z,78.85
2015-10-29T00:12:26.296Z,78.56
2015-10-29T00:12:38.639Z,78.75
2015-10-29T00:12:50.971Z,78.71
2015-10-29T00:13:03.330Z,78.75
2015-10-29T00:13:15.517Z,78.75
2015-10-29T00:13:27.892Z,78.75
2015-10-29T00:13:40.267Z,78.75
2015-10-29T00:13:52.599Z,78.61
2015-10-29T00:14:04.927Z,78.75
2015-10-29T00:14:17.255Z,78.65
2015-10-29T00:14:29.599Z,78.65
2015-10-29T00:14:41.929Z,78.75
2015-10-29T00:14:54.272Z,78.65
2015-10-29T00:15:06.616Z,78.94
2015-10-29T00:15:18.991Z,78.94
2015-10-29T00:15:31.351Z,79.03
2015-10-29T00:15:43.697Z,79.03
2015-10-29T00:15:56.025Z,78.94
2015-10-29T00:16:08.354Z,79.03
2015-10-29T00:16:20.682Z,78.65
2015-10-29T00:16:33.025Z,78.65
2015-10-29T00:16:45.388Z,78.27
2015-10-29T00:16:57.732Z,78.85
2015-10-29T00:17:10.138Z,79.13
2015-10-29T00:17:22.466Z,79.03
2015-10-29T00:17:34.778Z,79.03
2015-10-29T00:17:47.124Z,79.03
2015-10-29T00:17:59.468Z,78.94
2015-10-29T00:18:11.796Z,79.22
2015-10-29T00:18:24.140Z,79.13
2015-10-29T00:18:36.484Z,79.03
2015-10-29T00:18:48.862Z,79.03
2015-10-29T00:19:01.190Z,79.03
2015-10-29T00:19:13.518Z,78.85
2015-10-29T00:19:25.690Z,78.85
2015-10-29T00:19:38.018Z,79.03
2015-10-29T00:19:50.349Z,79.03
2015-10-29T00:20:02.693Z,78.85
2015-10-29T00:20:15.021Z,79.22
2015-10-29T00:20:27.255Z,79.22
2015-10-29T00:20:39.583Z,79.03
2015-10-29T00:20:51.211Z,79.03
2015-10-29T00:21:03.539Z,79.03
2015-10-29T00:21:15.727Z,78.94
2015-10-29T00:21:28.071Z,79.13
2015-10-29T00:21:40.399Z,79.22
2015-10-29T00:21:52.729Z,79.03
2015-10-29T00:22:05.073Z,79.13
2015-10-29T00:22:17.448Z,79.13
2015-10-29T00:22:29.635Z,79.13
2015-10-29T00:22:41.982Z,79.5
2015-10-29T00:22:54.341Z,79.32
2015-10-29T00:23:05.982Z,79.22
2015-10-29T00:23:18.341Z,79.13
2015-10-29T00:23:30.669Z,79.32
2015-10-29T00:23:43.001Z,79.13
2015-10-29T00:23:55.329Z,79.13
2015-10-29T00:24:07.672Z,78.94
2015-10-29T00:24:20.001Z,79.32
2015-10-29T00:24:32.360Z,78.94
2015-10-29T00:24:44.706Z,78.9
2015-10-29T00:24:57.096Z,79.03
2015-10-29T00:25:09.440Z,79.13
2015-10-29T00:25:21.753Z,79.32
2015-10-29T00:25:34.096Z,79.32
2015-10-29T00:25:46.427Z,79.32
2015-10-29T00:25:58.756Z,79.32
2015-10-29T00:26:11.115Z,79.32
2015-10-29T00:26:23.490Z,79.41
2015-10-29T00:26:35.802Z,79.41
2015-10-29T00:26:48.133Z,79.41
2015-10-29T00:27:00.461Z,79.69
2015-10-29T00:27:12.789Z,79.5
2015-10-29T00:27:25.117Z,79.6
2015-10-29T00:27:37.445Z,79.69
2015-10-29T00:27:49.807Z,79.56
2015-10-29T00:28:02.151Z,79.69
2015-10-29T00:28:14.479Z,79.79
2015-10-29T00:28:26.823Z,79.56
2015-10-29T00:28:39.151Z,79.69
2015-10-29T00:28:51.498Z,79.69
2015-10-29T00:29:03.826Z,79.69
2015-10-29T00:29:16.185Z,79.28
2015-10-29T00:29:28.529Z,79.32
2015-10-29T00:29:40.857Z,79.22
2015-10-29T00:29:53.203Z,79.37
2015-10-29T00:30:05.562Z,79.41
2015-10-29T00:30:17.937Z,79.37
2015-10-29T00:30:30.266Z,79.47
2015-10-29T00:30:42.597Z,79.41
2015-10-29T00:30:54.925Z,79.5
2015-10-29T00:31:07.253Z,79.56
2015-10-29T00:31:19.581Z,79.56
2015-10-29T00:31:31.925Z,79.41
2015-10-29T00:31:44.272Z,79.66
2015-10-29T00:31:56.647Z,79.6
2015-10-29T00:32:08.990Z,79.56
2015-10-29T00:32:21.318Z,79.37
2015-10-29T00:32:33.647Z,79.41
2015-10-29T00:32:45.978Z,79.56
2015-10-29T00:32:58.306Z,79.37
2015-10-29T00:33:10.634Z,79.56
2015-10-29T00:33:22.978Z,79.56
2015-10-29T00:33:35.321Z,79.56
2015-10-29T00:33:46.995Z,79.47
2015-10-29T00:33:59.323Z,79.56
2015-10-29T00:34:11.652Z,79.56
2015-10-29T00:34:23.980Z,79.37
2015-10-29T00:34:36.323Z,79.47
2015-10-29T00:34:48.655Z,79.56
2015-10-29T00:35:00.983Z,79.56
2015-10-29T00:35:13.342Z,79.09
2015-10-29T00:35:25.701Z,79.94
2015-10-29T00:35:38.045Z,80.13
2015-10-29T00:35:50.391Z,80.13
2015-10-29T00:36:02.719Z,80.13
2015-10-29T00:36:15.047Z,79.88
2015-10-29T00:36:27.391Z,79.94
2015-10-29T00:36:39.719Z,79.94
2015-10-29T00:36:51.348Z,79.66
2015-10-29T00:37:03.676Z,79.94
2015-10-29T00:37:16.036Z,80.41
2015-10-29T00:37:27.661Z,79.98
2015-10-29T00:37:39.989Z,79.94
2015-10-29T00:38:06.491Z,80.04
2015-10-29T00:38:18.834Z,80.13
2015-10-29T00:38:31.163Z,80.22
2015-10-29T00:38:43.509Z,80.13
2015-10-29T00:38:55.853Z,80.13
2015-10-29T00:39:08.212Z,80.13
2015-10-29T00:39:20.603Z,80.04
2015-10-29T00:39:32.931Z,80.13
2015-10-29T00:39:45.262Z,80.41
2015-10-29T00:39:57.606Z,80.41
2015-10-29T00:40:09.950Z,80.41
2015-10-29T00:40:21.575Z,80.6
2015-10-29T00:40:33.903Z,80.51
2015-10-29T00:40:46.250Z,80.32
2015-10-29T00:40:58.609Z,80.22
2015-10-29T00:41:10.968Z,80.32
2015-10-29T00:41:23.297Z,80.41
2015-10-29T00:41:35.625Z,80.22
2015-10-29T00:41:47.970Z,80.41
2015-10-29T00:42:00.314Z,80.6
2015-10-29T00:42:12.642Z,80.51
2015-10-29T00:42:24.986Z,80.79
2015-10-29T00:42:37.330Z,80.6
2015-10-29T00:43:03.833Z,80.88
2015-10-29T00:43:30.317Z,81.26
2015-10-29T00:43:42.648Z,81.36
2015-10-29T00:43:54.992Z,81.36
2015-10-29T00:44:07.320Z,81.26
2015-10-29T00:44:19.508Z,81.26
2015-10-29T00:44:31.836Z,81.26
2015-10-29T00:44:44.041Z,81.26
2015-10-29T00:44:56.353Z,80.98
2015-10-29T00:45:08.666Z,81.17
2015-10-29T00:45:20.994Z,81.26
2015-10-29T00:45:32.635Z,81.07
2015-10-29T00:45:44.966Z,81.26
2015-10-29T00:45:57.153Z,81.55
2015-10-29T00:46:09.481Z,81.17
2015-10-29T00:46:21.856Z,81.55
2015-10-29T00:46:34.231Z,81.45
2015-10-29T00:46:46.562Z,81.17
2015-10-29T00:46:58.890Z,81.55
2015-10-29T00:47:11.218Z,81.64
2015-10-29T00:47:23.546Z,81.64
2015-10-29T00:47:35.858Z,81.07
2015-10-29T00:47:48.221Z,81.17
2015-10-29T00:48:00.565Z,81.17
2015-10-29T00:48:12.908Z,80.98
2015-10-29T00:48:25.236Z,80.98
2015-10-29T00:48:37.565Z,81.55
2015-10-29T00:48:49.896Z,81.45
2015-10-29T00:49:02.224Z,81.55
2015-10-29T00:49:14.552Z,81.55
2015-10-29T00:49:26.896Z,81.55
2015-10-29T00:49:39.255Z,81.45
2015-10-29T00:49:51.617Z,81.64
2015-10-29T00:50:03.946Z,81.55
2015-10-29T00:50:16.274Z,81.45
2015-10-29T00:50:28.602Z,81.36
2015-10-29T00:50:40.930Z,81.45
2015-10-29T00:50:53.244Z,81.45
2015-10-29T00:51:05.604Z,81.26
2015-10-29T00:51:17.948Z,81.36
2015-10-29T00:51:30.307Z,81.26
2015-10-29T00:51:42.654Z,81.26
2015-10-29T00:51:54.982Z,81.45
2015-10-29T00:52:07.310Z,81.45
2015-10-29T00:52:19.654Z,81.36
2015-10-29T00:52:32.013Z,81.64
2015-10-29T00:52:44.375Z,81.93
2015-10-29T00:52:56.750Z,81.55
2015-10-29T00:53:09.094Z,81.17
2015-10-29T00:53:21.438Z,81.93
2015-10-29T00:53:33.750Z,81.93
2015-10-29T00:53:46.081Z,82.02
2015-10-29T00:53:58.409Z,82.02
2015-10-29T00:54:10.752Z,82.31
2015-10-29T00:54:23.096Z,81.93
2015-10-29T00:54:35.456Z,82.21
2015-10-29T00:54:47.834Z,82.21
2015-10-29T00:55:00.162Z,82.12
2015-10-29T00:55:12.490Z,82.02
2015-10-29T00:55:24.802Z,81.93
2015-10-29T00:55:37.130Z,82.02
2015-10-29T00:55:49.462Z,82.12
2015-10-29T00:56:01.805Z,82.12
2015-10-29T00:56:14.165Z,81.83
2015-10-29T00:56:26.508Z,82.5
2015-10-29T00:56:38.899Z,82.4
2015-10-29T00:56:51.292Z,81.83
2015-10-29T00:57:03.604Z,82.59
2015-10-29T00:57:15.932Z,82.5
2015-10-29T00:57:28.260Z,82.78
2015-10-29T00:57:40.589Z,82.21
2015-10-29T00:57:52.920Z,83.34
2015-10-29T00:58:05.263Z,83.06
2015-10-29T00:58:17.607Z,83.34
2015-10-29T00:58:29.967Z,83.25
2015-10-29T00:58:42.326Z,83.15
2015-10-29T00:58:54.673Z,83.25
2015-10-29T00:59:07.001Z,83.25
2015-10-29T00:59:19.157Z,83.53
2015-10-29T00:59:31.485Z,83.82
2015-10-29T00:59:43.832Z,83.53
2015-10-29T00:59:56.160Z,83.44
2015-10-29T01:00:08.504Z,83.44
2015-10-29T01:00:20.129Z,83.91
2015-10-29T01:00:32.348Z,83.82
2015-10-29T01:00:44.521Z,83.91
2015-10-29T01:00:56.850Z,83.91
2015-10-29T01:01:09.193Z,83.82
2015-10-29T01:01:21.521Z,83.44
2015-10-29T01:01:33.693Z,83.44
2015-10-29T01:01:46.040Z,83.91
2015-10-29T01:01:58.384Z,83.44
2015-10-29T01:02:10.728Z,83.63
2015-10-29T01:02:23.056Z,83.72
2015-10-29T01:02:35.384Z,83.63
2015-10-29T01:02:47.559Z,83.72
2015-10-29T01:02:59.887Z,83.82
2015-10-29T01:03:12.199Z,83.91
2015-10-29T01:03:24.527Z,83.53
2015-10-29T01:03:36.871Z,83.63
2015-10-29T01:03:49.233Z,84.01
2015-10-29T01:04:01.592Z,83.91
2015-10-29T01:04:13.795Z,84.2
2015-10-29T01:04:26.154Z,84.2
2015-10-29T01:04:38.483Z,83.91
2015-10-29T01:04:50.814Z,83.91
2015-10-29T01:05:03.142Z,84.01
2015-10-29T01:05:15.486Z,84.2
2015-10-29T01:05:27.829Z,83.91
2015-10-29T01:05:40.157Z,84.29
2015-10-29T01:05:52.566Z,84.48
2015-10-29T01:06:04.894Z,84.48
2015-10-29T01:06:17.222Z,84.67
2015-10-29T01:06:29.550Z,84.2
2015-10-29T01:06:41.878Z,84.39
2015-10-29T01:06:54.209Z,84.48
2015-10-29T01:07:06.553Z,84.39
2015-10-29T01:07:18.881Z,84.2
2015-10-29T01:07:31.241Z,84.77
2015-10-29T01:07:43.603Z,84.58
2015-10-29T01:07:55.947Z,84.77
2015-10-29T01:08:08.275Z,84.86
2015-10-29T01:08:20.619Z,84.95
2015-10-29T01:08:32.947Z,85.05
2015-10-29T01:08:45.309Z,85.14
2015-10-29T01:08:57.653Z,85.14
2015-10-29T01:09:10.012Z,84.77
2015-10-29T01:09:22.340Z,85.05
2015-10-29T01:09:34.668Z,84.95
2015-10-29T01:09:46.999Z,85.05
2015-10-29T01:09:59.342Z,84.39
2015-10-29T01:10:11.670Z,84.95
2015-10-29T01:10:24.014Z,84.95
2015-10-29T01:10:36.358Z,85.33
2015-10-29T01:10:48.720Z,85.05
2015-10-29T01:11:01.048Z,85.33
2015-10-29T01:11:13.377Z,85.05
2015-10-29T01:11:25.705Z,85.05
2015-10-29T01:11:38.048Z,84.67
2015-10-29T01:11:50.380Z,84.77
2015-10-29T01:12:02.708Z,85.05
2015-10-29T01:12:15.051Z,85.42
2015-10-29T01:12:27.426Z,85.42
2015-10-29T01:12:39.770Z,85.42
2015-10-29T01:12:52.100Z,85.42
2015-10-29T01:13:04.428Z,85.61
2015-10-29T01:13:16.757Z,85.42
2015-10-29T01:13:29.085Z,85.42
2015-10-29T01:13:41.428Z,85.8
2015-10-29T01:13:53.760Z,86.28
2015-10-29T01:14:06.119Z,85.99
2015-10-29T01:14:18.463Z,86.18
2015-10-29T01:14:30.791Z,85.8
2015-10-29T01:14:43.119Z,85.8
2015-10-29T01:14:55.434Z,86.18
2015-10-29T01:15:07.778Z,86.28
2015-10-29T01:15:20.122Z,86.37
2015-10-29T01:15:32.466Z,86.56
2015-10-29T01:15:44.828Z,86.47
2015-10-29T01:15:57.187Z,86.47
2015-10-29T01:16:09.516Z,86.75
2015-10-29T01:16:21.844Z,86.56
2015-10-29T01:16:34.172Z,87.23
2015-10-29T01:16:46.518Z,87.23
2015-10-29T01:16:58.846Z,86.85
2015-10-29T01:17:11.189Z,87.32
2015-10-29T01:17:23.533Z,87.79
2015-10-29T01:17:35.908Z,87.51
2015-10-29T01:17:48.239Z,87.79
2015-10-29T01:18:00.567Z,87.79
2015-10-29T01:18:12.896Z,87.88
2015-10-29T01:18:25.224Z,88.26
2015-10-29T01:18:37.552Z,87.98
2015-10-29T01:18:49.727Z,87.7
2015-10-29T01:19:02.055Z,88.26
2015-10-29T01:19:14.399Z,88.17
2015-10-29T01:19:26.774Z,88.64
2015-10-29T01:19:39.102Z,88.83
2015-10-29T01:19:51.260Z,88.64
2015-10-29T01:20:03.588Z,88.74
2015-10-29T01:20:15.901Z,89.4
2015-10-29T01:20:28.229Z,88.93
2015-10-29T01:20:40.557Z,89.12
2015-10-29T01:20:52.888Z,89.12
2015-10-29T01:21:05.263Z,89.02
2015-10-29T01:21:17.622Z,89.02
2015-10-29T01:21:29.950Z,89.02
2015-10-29T01:21:42.279Z,89.02
2015-10-29T01:21:54.609Z,88.64
2015-10-29T01:22:06.234Z,88.83
2015-10-29T01:22:17.843Z,89.02
2015-10-29T01:22:30.187Z,88.83
2015-10-29T01:22:42.515Z,88.64
2015-10-29T01:22:55.096Z,88.74
2015-10-29T01:23:22.627Z,89.12
2015-10-29T01:23:34.799Z,88.93
2015-10-29T01:23:46.412Z,89.21
2015-10-29T01:23:58.755Z,89.02
2015-10-29T01:24:11.099Z,89.02
2015-10-29T01:24:23.458Z,88.74
2015-10-29T01:24:35.787Z,89.02
2015-10-29T01:24:48.117Z,89.02
2015-10-29T01:25:00.460Z,89.02
2015-10-29T01:25:12.789Z,89.12
2015-10-29T01:25:25.117Z,89.21
2015-10-29T01:25:37.460Z,88.64
2015-10-29T01:25:49.823Z,88.64
2015-10-29T01:26:02.167Z,88.64
2015-10-29T01:26:14.510Z,88.93
2015-10-29T01:26:26.838Z,89.12
2015-10-29T01:26:39.167Z,89.21
2015-10-29T01:26:51.513Z,88.83
2015-10-29T01:27:03.826Z,89.12
2015-10-29T01:27:16.170Z,89.02
2015-10-29T01:27:28.545Z,89.4
2015-10-29T01:27:40.185Z,89.02
2015-10-29T01:27:52.548Z,89.12
2015-10-29T01:28:04.876Z,89.21
2015-10-29T01:28:17.204Z,89.97
2015-10-29T01:28:29.532Z,89.97
2015-10-29T01:28:41.844Z,90.34
2015-10-29T01:28:54.191Z,90.16
2015-10-29T01:29:06.535Z,90.34
2015-10-29T01:29:18.894Z,90.44
2015-10-29T01:29:31.254Z,90.34
2015-10-29T01:29:43.597Z,90.53
2015-10-29T01:29:55.928Z,90.72
2015-10-29T01:30:08.256Z,90.06
2015-10-29T01:30:20.584Z,90.82
2015-10-29T01:30:32.912Z,90.82
2015-10-29T01:30:45.243Z,90.72
2015-10-29T01:30:57.587Z,91.1
2015-10-29T01:31:09.946Z,91.01
2015-10-29T01:31:22.149Z,91.29
2015-10-29T01:31:34.509Z,91.39
2015-10-29T01:31:46.840Z,91.2
2015-10-29T01:31:59.168Z,91.39
2015-10-29T01:32:11.496Z,91.29
2015-10-29T01:32:23.824Z,91.01
2015-10-29T01:32:36.152Z,91.29
2015-10-29T01:32:48.498Z,91.29
2015-10-29T01:33:00.857Z,91.29
2015-10-29T01:33:13.201Z,91.1
2015-10-29T01:33:25.529Z,91.29
2015-10-29T01:33:37.857Z,91.1
2015-10-29T01:33:50.189Z,91.1
2015-10-29T01:34:02.517Z,91.1
2015-10-29T01:34:14.829Z,91.67
2015-10-29T01:34:27.173Z,91.86
2015-10-29T01:34:39.532Z,91.58
2015-10-29T01:34:51.910Z,91.48
2015-10-29T01:35:04.254Z,91.77
2015-10-29T01:35:16.567Z,91.86
2015-10-29T01:35:28.895Z,91.67
2015-10-29T01:35:41.238Z,91.58
2015-10-29T01:35:53.569Z,91.77
2015-10-29T01:36:05.912Z,91.77
2015-10-29T01:36:18.256Z,91.86
2015-10-29T01:36:30.615Z,91.58
2015-10-29T01:36:42.975Z,91.58
2015-10-29T01:36:55.290Z,91.67
2015-10-29T01:37:07.634Z,91.39
2015-10-29T01:37:19.978Z,91.48
2015-10-29T01:37:32.337Z,91.67
2015-10-29T01:37:44.714Z,91.77
2015-10-29T01:37:57.058Z,91.58
2015-10-29T01:38:09.417Z,91.77
2015-10-29T01:38:21.745Z,91.77
2015-10-29T01:38:34.074Z,91.96
2015-10-29T01:38:46.405Z,91.77
2015-10-29T01:38:58.733Z,91.72
2015-10-29T01:39:11.342Z,91.96
2015-10-29T01:39:23.686Z,91.96
2015-10-29T01:39:36.030Z,91.72
2015-10-29T01:39:48.392Z,91.77
2015-10-29T01:40:00.720Z,91.67
2015-10-29T01:40:13.048Z,91.67
2015-10-29T01:40:25.376Z,91.48
2015-10-29T01:40:37.720Z,91.81
2015-10-29T01:40:50.394Z,91.58
2015-10-29T01:41:02.753Z,91.91
2015-10-29T01:41:15.082Z,91.67
2015-10-29T01:41:27.441Z,91.67
2015-10-29T01:41:39.816Z,91.86
2015-10-29T01:41:52.178Z,91.77
2015-10-29T01:42:04.522Z,92.71
2015-10-29T01:42:16.835Z,92.8
2015-10-29T01:42:29.163Z,92.29
2015-10-29T01:42:41.491Z,92.61
2015-10-29T01:42:53.150Z,92.52
2015-10-29T01:43:04.775Z,92.52
2015-10-29T01:43:17.134Z,92.61
2015-10-29T01:43:29.494Z,92.71
2015-10-29T01:43:41.806Z,92.52
2015-10-29T01:43:54.137Z,92.52
2015-10-29T01:44:06.466Z,92.61
2015-10-29T01:44:18.091Z,92.33
2015-10-29T01:44:30.419Z,92.33
2015-10-29T01:44:42.747Z,92.33
2015-10-29T01:44:55.108Z,92.52
2015-10-29T01:45:07.452Z,92.61
2015-10-29T01:45:19.639Z,92.61
2015-10-29T01:45:31.968Z,92.71
2015-10-29T01:45:44.296Z,92.24
2015-10-29T01:45:56.611Z,92.61
2015-10-29T01:46:08.955Z,92.14
2015-10-29T01:46:21.299Z,92.33
2015-10-29T01:46:33.627Z,92.33
2015-10-29T01:46:45.989Z,92.43
2015-10-29T01:46:58.333Z,92.43
2015-10-29T01:47:10.645Z,92.29
2015-10-29T01:47:22.974Z,92.24
2015-10-29T01:47:35.302Z,92.14
2015-10-29T01:47:47.648Z,92.24
2015-10-29T01:47:59.977Z,92.52
2015-10-29T01:48:12.320Z,92.33
2015-10-29T01:48:24.664Z,92.52
2015-10-29T01:48:37.023Z,92.9
2015-10-29T01:48:49.385Z,92.94
2015-10-29T01:49:01.713Z,92.9
2015-10-29T01:49:14.041Z,92.8
2015-10-29T01:49:26.354Z,92.9
2015-10-29T01:49:38.697Z,92.61
2015-10-29T01:49:51.028Z,92.9
2015-10-29T01:50:03.372Z,92.9
2015-10-29T01:50:15.716Z,92.8
2015-10-29T01:50:28.060Z,92.61
2015-10-29T01:50:40.450Z,92.61
2015-10-29T01:50:52.797Z,92.66
2015-10-29T01:51:05.125Z,92.61
2015-10-29T01:51:17.438Z,92.71
2015-10-29T01:51:29.766Z,93.09
2015-10-29T01:51:42.110Z,92.9
2015-10-29T01:51:53.737Z,92.8
2015-10-29T01:52:06.065Z,92.8
2015-10-29T01:52:18.424Z,92.8
2015-10-29T01:52:30.783Z,92.8
2015-10-29T01:52:43.174Z,92.61
2015-10-29T01:52:55.505Z,92.57
2015-10-29T01:53:07.849Z,93.23
2015-10-29T01:53:20.177Z,93.09
2015-10-29T01:53:32.521Z,92.99
2015-10-29T01:53:44.865Z,92.71
2015-10-29T01:53:57.227Z,92.99
2015-10-29T01:54:09.571Z,92.8
2015-10-29T01:54:21.914Z,92.99
2015-10-29T01:54:34.243Z,93.09
2015-10-29T01:54:46.557Z,92.99
2015-10-29T01:54:58.885Z,93.18
2015-10-29T01:55:11.198Z,93.09
2015-10-29T01:55:23.510Z,93.23
2015-10-29T01:55:35.854Z,93.13
2015-10-29T01:55:48.216Z,93.32
2015-10-29T01:56:00.576Z,93.37
2015-10-29T01:56:12.951Z,93.13
2015-10-29T01:56:25.294Z,93.04
2015-10-29T01:56:37.607Z,93.51
2015-10-29T01:56:49.781Z,93.61
2015-10-29T01:57:02.125Z,93.51
2015-10-29T01:57:14.453Z,93.51
2015-10-29T01:57:26.781Z,93.61
2015-10-29T01:57:39.125Z,93.61
2015-10-29T01:57:51.487Z,93.99
2015-10-29T01:58:03.799Z,93.99
2015-10-29T01:58:16.128Z,93.99
2015-10-29T01:58:28.471Z,93.8
2015-10-29T01:58:40.799Z,93.99
2015-10-29T01:58:53.131Z,93.61
2015-10-29T01:59:05.459Z,93.7
2015-10-29T01:59:17.802Z,93.8
2015-10-29T01:59:30.162Z,93.89
2015-10-29T01:59:42.506Z,94.08
2015-10-29T01:59:54.836Z,94.27
2015-10-29T02:00:07.179Z,94.27
2015-10-29T02:00:19.508Z,93.7
2015-10-29T02:00:31.836Z,93.61
2015-10-29T02:00:44.164Z,93.99
2015-10-29T02:00:56.511Z,93.99
2015-10-29T02:01:08.854Z,93.89
2015-10-29T02:01:21.214Z,93.89
2015-10-29T02:01:33.573Z,93.99
2015-10-29T02:01:45.904Z,93.8
2015-10-29T02:01:58.232Z,93.89
2015-10-29T02:02:10.576Z,93.8
2015-10-29T02:02:22.904Z,93.61
2015-10-29T02:02:35.404Z,92.94
2015-10-29T02:02:47.767Z,93.42
2015-10-29T02:03:00.142Z,93.32
2015-10-29T02:03:12.501Z,93.23
2015-10-29T02:03:24.813Z,93.13
2015-10-29T02:03:37.142Z,93.13
2015-10-29T02:03:49.472Z,93.32
2015-10-29T02:04:01.800Z,93.23
2015-10-29T02:04:13.972Z,93.32
2015-10-29T02:04:26.300Z,93.23
2015-10-29T02:04:38.659Z,93.32
2015-10-29T02:04:50.990Z,93.42
2015-10-29T02:05:03.318Z,93.13
2015-10-29T02:05:15.662Z,93.04
2015-10-29T02:05:28.006Z,93.61
2015-10-29T02:05:40.334Z,93.61
2015-10-29T02:05:52.665Z,93.8
2015-10-29T02:06:05.009Z,93.89
2015-10-29T02:06:17.368Z,94.08
2015-10-29T02:06:28.993Z,94.08
2015-10-29T02:06:41.321Z,94.27
2015-10-29T02:06:53.653Z,93.8
2015-10-29T02:07:05.981Z,94.37
2015-10-29T02:07:18.309Z,94.27
2015-10-29T02:07:30.637Z,94.08
2015-10-29T02:07:42.981Z,93.99
2015-10-29T02:07:55.343Z,94.37
2015-10-29T02:08:07.671Z,94.08
2015-10-29T02:08:19.999Z,94.37
2015-10-29T02:08:32.327Z,94.56
2015-10-29T02:08:44.656Z,94.56
2015-10-29T02:08:56.986Z,94.27
2015-10-29T02:09:09.314Z,94.56
2015-10-29T02:09:21.658Z,94.56
2015-10-29T02:09:34.017Z,94.27
2015-10-29T02:09:46.364Z,94.56
2015-10-29T02:09:58.692Z,94.27
2015-10-29T02:10:11.004Z,94.37
2015-10-29T02:10:23.332Z,94.65
2015-10-29T02:10:35.676Z,94.56
2015-10-29T02:10:48.023Z,94.37
2015-10-29T02:11:00.382Z,94.46
2015-10-29T02:11:12.742Z,94.74
2015-10-29T02:11:25.101Z,94.74
2015-10-29T02:11:37.429Z,94.84
2015-10-29T02:11:49.759Z,94.46
2015-10-29T02:12:02.087Z,95.21
2015-10-29T02:12:14.416Z,95.31
2015-10-29T02:12:26.744Z,95.03
2015-10-29T02:12:39.087Z,95.5
2015-10-29T02:12:51.450Z,95.69
2015-10-29T02:13:03.809Z,95.69
2015-10-29T02:13:16.200Z,95.69
2015-10-29T02:13:28.528Z,95.69
2015-10-29T02:13:40.872Z,95.78
2015-10-29T02:13:53.202Z,95.97
2015-10-29T02:14:05.530Z,95.78
2015-10-29T02:14:17.702Z,95.69
2015-10-29T02:14:30.046Z,95.78
2015-10-29T02:14:42.389Z,95.88
2015-10-29T02:14:54.767Z,96.26
2015-10-29T02:15:07.095Z,96.16
2015-10-29T02:15:18.720Z,96.16
2015-10-29T02:15:31.049Z,96.45
2015-10-29T02:15:43.377Z,96.45
2015-10-29T02:15:55.708Z,96.26
2015-10-29T02:16:08.036Z,96.07
2015-10-29T02:16:20.380Z,95.88
2015-10-29T02:16:32.723Z,96.16
2015-10-29T02:16:45.083Z,96.07
2015-10-29T02:16:57.429Z,96.83
2015-10-29T02:17:09.757Z,96.54
2015-10-29T02:17:22.100Z,96.45
2015-10-29T02:17:34.429Z,96.73
2015-10-29T02:17:46.054Z,96.73
2015-10-29T02:17:58.386Z,96.83
2015-10-29T02:18:10.729Z,96.83
2015-10-29T02:18:23.073Z,96.64
2015-10-29T02:18:35.433Z,96.73
2015-10-29T02:18:47.792Z,96.73
2015-10-29T02:19:00.388Z,96.45
2015-10-29T02:19:12.716Z,96.54
2015-10-29T02:19:25.044Z,96.64
2015-10-29T02:19:37.372Z,97.39
2015-10-29T02:19:49.702Z,96.83
2015-10-29T02:20:02.046Z,97.2
2015-10-29T02:20:14.405Z,96.92
2015-10-29T02:20:26.796Z,97.3
2015-10-29T02:20:39.124Z,97.39
2015-10-29T02:20:51.441Z,97.39
2015-10-29T02:21:03.769Z,97.39
2015-10-29T02:21:16.112Z,97.39
2015-10-29T02:21:28.441Z,97.39
2015-10-29T02:21:40.784Z,97.49
2015-10-29T02:21:53.114Z,97.49
2015-10-29T02:22:05.489Z,97.58
2015-10-29T02:22:17.818Z,97.11
2015-10-29T02:22:30.146Z,97.11
2015-10-29T02:22:42.474Z,97.39
2015-10-29T02:22:54.821Z,97.58
2015-10-29T02:23:07.149Z,97.86
2015-10-29T02:23:19.492Z,97.67
2015-10-29T02:23:31.664Z,97.49
2015-10-29T02:23:44.039Z,97.67
2015-10-29T02:23:56.386Z,97.67
2015-10-29T02:24:08.714Z,98.14
2015-10-29T02:24:21.042Z,97.86
2015-10-29T02:24:33.370Z,97.86
2015-10-29T02:24:45.699Z,97.96
2015-10-29T02:24:58.029Z,98.05
2015-10-29T02:25:10.372Z,98.05
2015-10-29T02:25:22.716Z,97.86
2015-10-29T02:25:35.076Z,98.05
2015-10-29T02:25:47.435Z,98.05
2015-10-29T02:25:59.766Z,97.96
2015-10-29T02:26:12.094Z,97.77
2015-10-29T02:26:24.407Z,97.86
2015-10-29T02:26:36.735Z,97.86
2015-10-29T02:26:49.079Z,98.14
2015-10-29T02:27:01.441Z,98.24
2015-10-29T02:27:13.800Z,98.33
2015-10-29T02:27:25.425Z,98.24
2015-10-29T02:27:37.753Z,98.24
2015-10-29T02:27:49.378Z,98.24
2015-10-29T02:28:01.709Z,98.33
2015-10-29T02:28:14.037Z,98.14
2015-10-29T02:28:26.380Z,98.9
2015-10-29T02:28:38.724Z,99.09
2015-10-29T02:28:51.084Z,99.09
2015-10-29T02:29:03.430Z,99.09
2015-10-29T02:29:15.618Z,98.9
2015-10-29T02:29:27.930Z,98.9
2015-10-29T02:29:40.243Z,98.81
2015-10-29T02:29:52.587Z,98.52
2015-10-29T02:30:04.902Z,98.24
2015-10-29T02:30:17.246Z,98.81
2015-10-29T02:30:29.574Z,98.9
2015-10-29T02:30:41.933Z,98.9
2015-10-29T02:30:54.261Z,98.9
2015-10-29T02:31:06.593Z,98.9
2015-10-29T02:31:18.921Z,98.81
2015-10-29T02:31:31.233Z,99
2015-10-29T02:31:43.561Z,99
2015-10-29T02:31:55.891Z,98.9
2015-10-29T02:32:08.235Z,98.81
2015-10-29T02:32:20.610Z,98.9
2015-10-29T02:32:32.970Z,98.9
2015-10-29T02:32:45.298Z,98.9
2015-10-29T02:32:57.629Z,98.62
2015-10-29T02:33:09.957Z,99
2015-10-29T02:33:22.285Z,99
2015-10-29T02:33:34.598Z,98.71
2015-10-29T02:33:46.941Z,98.71
2015-10-29T02:33:59.288Z,99
2015-10-29T02:34:11.647Z,98.62
2015-10-29T02:34:23.991Z,98.62
2015-10-29T02:34:36.319Z,99
2015-10-29T02:34:48.647Z,98.9
2015-10-29T02:35:00.978Z,98.62
2015-10-29T02:35:13.337Z,99
2015-10-29T02:35:25.665Z,98.71
2015-10-29T02:35:38.024Z,98.62
2015-10-29T02:35:50.399Z,98.9
2015-10-29T02:36:02.731Z,98.71
2015-10-29T02:36:14.356Z,98.9
2015-10-29T02:36:26.684Z,99
2015-10-29T02:36:38.996Z,98.9
2015-10-29T02:36:51.324Z,98.9
2015-10-29T02:37:03.671Z,98.81
2015-10-29T02:37:16.015Z,98.9
2015-10-29T02:37:28.359Z,99
2015-10-29T02:37:40.718Z,99
2015-10-29T02:37:53.062Z,98.62
2015-10-29T02:38:05.407Z,98.43
2015-10-29T02:38:17.736Z,98.81
2015-10-29T02:38:29.345Z,98.24
2015-10-29T02:38:41.673Z,98.81
2015-10-29T02:38:54.001Z,98.81
2015-10-29T02:39:06.348Z,98.81
2015-10-29T02:39:18.692Z,98.81
2015-10-29T02:39:31.051Z,98.81
2015-10-29T02:39:43.410Z,98.9
2015-10-29T02:39:55.757Z,98.9
2015-10-29T02:40:08.085Z,98.71
2015-10-29T02:40:20.413Z,98.62